Airfield :
LOGIN :

Register | Disclaimer

   EN    FR    IT 

 










Legend :    VFR   Marginal VFR   IFR   Intensive IFR   Very Intensive IFR
Visi :
Ceiling :
>= 8 km
>= 3000ft
5 to 8 km
1000 to 3000 ft
1500m to 5 km
500 to 1000 ft
800 to 1500m
200 to 500 ft
< 800m
< 200 ft
Symbols :   Thunderstorms  Fog  Heavy snow  Heavy precipitations  Wind > 20 kt
SIGMETs :     Misc.  Thunderstorms  Icing  Turbulence  Mountain Waves  Volcanic Ashes






- Airport Elevation : 1027 ft
- IATA code : TMX


DAUT - Timimoun

CURRENT METAR :
  • 131700Z 26003KT CAVOK 25/M00 Q1015

EXPIRED METARs :
  • 131600Z 24009KT CAVOK 26/00 Q1015
  • 131500Z 25013KT CAVOK 25/01 Q1015

TAF TAF DAUT
Valid from the 13 at 15:00 until the 14 at 00:00 UTC


131400Z 1315/1324 22012KT CAVOK
BECMG 1318/1321 VRB02KT



MET'MAP, your aeronautical weather chart ! - Copyright ORBIFLY December 2007 - Disclaimer

ORBIFLY MET'MAP TEAM :

Programming & Development : Alexandra Zaïnal
Concept & Development : Baudouin d'Aumeries
Co-Development & Prog : Marc-Olivier Méhu
Technical & hardware support : Manuel Goepfert

Contact : metmap@orbifly.com




SOURCES & CREDITS :

   NOAA